createdAt,value
2023-02-27T00:01:46.717Z,0.40
2023-02-27T00:04:13.245Z,0.18
2023-02-27T00:06:39.601Z,0.35
2023-02-27T00:09:06.077Z,0.24
2023-02-27T00:11:32.447Z,0.09
2023-02-27T00:13:58.785Z,0.13
2023-02-27T00:16:25.257Z,0.05
2023-02-27T00:18:51.652Z,-0.03
2023-02-27T00:21:18.245Z,0.00
2023-02-27T00:23:44.628Z,-0.04
2023-02-27T00:26:10.981Z,0.03
2023-02-27T00:28:37.337Z,0.06
2023-02-27T00:31:04.757Z,0.03
2023-02-27T00:33:31.338Z,0.04
2023-02-27T00:35:59.838Z,0.04
2023-02-27T00:38:26.821Z,0.15
2023-02-27T00:40:54.008Z,-0.08
2023-02-27T00:43:20.569Z,0.05
2023-02-27T00:45:48.049Z,0.00
2023-02-27T00:48:15.110Z,-0.03
2023-02-27T00:50:41.976Z,-0.08
2023-02-27T00:53:08.521Z,-0.11
2023-02-27T00:55:34.922Z,-0.19
2023-02-27T00:58:01.323Z,-0.12
2023-02-27T01:00:28.188Z,-0.37
2023-02-27T01:02:54.765Z,-0.32
2023-02-27T01:05:21.509Z,-0.29
2023-02-27T01:07:48.054Z,-0.34
2023-02-27T01:10:14.719Z,-0.46
2023-02-27T01:12:41.645Z,-0.47
2023-02-27T01:15:09.842Z,-0.41
2023-02-27T01:17:36.431Z,-0.45
2023-02-27T01:20:03.472Z,-0.49
2023-02-27T01:22:29.846Z,-0.40
2023-02-27T01:24:56.220Z,-0.37
2023-02-27T01:27:22.580Z,-0.51
2023-02-27T01:29:48.995Z,-0.30
2023-02-27T01:32:15.449Z,-0.55
2023-02-27T01:34:41.910Z,-0.29
2023-02-27T01:37:08.449Z,-0.56
2023-02-27T01:39:34.848Z,-0.40
2023-02-27T01:42:01.275Z,-0.35
2023-02-27T01:44:30.007Z,-0.53
2023-02-27T01:46:57.257Z,-0.54
2023-02-27T01:49:34.057Z,-0.45
2023-02-27T01:52:10.875Z,-0.55
2023-02-27T01:54:40.494Z,-0.59
2023-02-27T01:57:07.839Z,-0.63
2023-02-27T01:59:36.906Z,-0.70
2023-02-27T02:02:09.315Z,-0.62
2023-02-27T02:04:39.169Z,-0.50
2023-02-27T02:07:12.997Z,-0.51
2023-02-27T02:09:48.343Z,-0.59
2023-02-27T02:12:16.957Z,-0.61
2023-02-27T02:14:44.044Z,-0.72
2023-02-27T02:17:13.807Z,-0.60
2023-02-27T02:19:54.537Z,-0.49
2023-02-27T02:22:51.948Z,-0.53
2023-02-27T02:25:45.869Z,-0.53
2023-02-27T02:28:47.745Z,-0.41
2023-02-27T02:31:57.438Z,-0.54
2023-02-27T02:34:45.480Z,-0.46
2023-02-27T02:37:33.037Z,-0.46
2023-02-27T02:40:27.807Z,-0.56
2023-02-27T02:43:08.483Z,-0.73
2023-02-27T02:45:52.861Z,-0.70
2023-02-27T02:48:39.405Z,-0.68
2023-02-27T02:51:17.423Z,-0.72
2023-02-27T02:53:59.270Z,-0.67
2023-02-27T02:56:44.090Z,-0.72
2023-02-27T02:59:30.659Z,-0.90
2023-02-27T03:02:03.413Z,-0.79
2023-02-27T03:04:42.831Z,-0.64
2023-02-27T03:07:16.878Z,-0.86
2023-02-27T03:09:49.128Z,-0.72
2023-02-27T03:12:21.599Z,-0.79
2023-02-27T03:14:58.829Z,-0.82
2023-02-27T03:17:38.437Z,-0.91
2023-02-27T03:20:09.089Z,-0.92
2023-02-27T03:22:40.008Z,-0.90
2023-02-27T03:25:09.089Z,-0.88
2023-02-27T03:27:40.724Z,-0.83
2023-02-27T03:30:17.951Z,-0.88
2023-02-27T03:32:56.832Z,-0.80
2023-02-27T03:35:32.064Z,-0.91
2023-02-27T03:38:28.872Z,-0.99
2023-02-27T03:41:15.140Z,-0.94
2023-02-27T03:44:00.717Z,-0.91
2023-02-27T03:46:28.444Z,-1.23
2023-02-27T03:48:55.084Z,-1.18
2023-02-27T03:51:23.893Z,-0.94
2023-02-27T03:54:14.264Z,-0.99
2023-02-27T03:57:02.274Z,-1.05
2023-02-27T03:59:30.348Z,-1.22
2023-02-27T04:01:57.700Z,-1.06
2023-02-27T04:04:25.300Z,-0.96
2023-02-27T04:07:25.284Z,-0.94
2023-02-27T04:10:16.068Z,-1.11
2023-02-27T04:13:19.864Z,-1.18
2023-02-27T04:16:03.443Z,-1.17
2023-02-27T04:18:59.001Z,-1.20
2023-02-27T04:21:37.652Z,-1.23
2023-02-27T04:24:35.284Z,-1.42
2023-02-27T04:27:16.208Z,-1.25
2023-02-27T04:30:02.592Z,-1.14
2023-02-27T04:32:38.290Z,-1.05
2023-02-27T04:35:39.529Z,-0.99
2023-02-27T04:38:25.500Z,-1.08
2023-02-27T04:40:57.753Z,-1.20
2023-02-27T04:43:26.469Z,-1.06
2023-02-27T04:45:56.716Z,-1.20
2023-02-27T04:48:25.973Z,-1.17
2023-02-27T04:50:58.264Z,-1.17
2023-02-27T04:53:29.309Z,-1.09
2023-02-27T04:56:06.378Z,-1.25
2023-02-27T04:58:40.579Z,-1.16
2023-02-27T05:01:13.571Z,-1.12
2023-02-27T05:03:44.957Z,-1.10
2023-02-27T05:06:14.994Z,-1.13
2023-02-27T05:08:49.349Z,-1.25
2023-02-27T05:11:28.510Z,-1.09
2023-02-27T05:14:04.271Z,-1.21
2023-02-27T05:16:38.667Z,-1.13
2023-02-27T05:19:06.312Z,-1.10
2023-02-27T05:21:47.505Z,-1.02
2023-02-27T05:24:25.388Z,-1.09
2023-02-27T05:27:16.525Z,-1.16
2023-02-27T05:29:50.087Z,-1.10
2023-02-27T05:32:37.379Z,-1.07
2023-02-27T05:35:36.679Z,-1.08
2023-02-27T05:38:09.946Z,-1.19
2023-02-27T05:40:44.216Z,-1.27
2023-02-27T05:43:28.501Z,-1.31
2023-02-27T05:46:04.977Z,-1.33
2023-02-27T05:48:36.758Z,-1.35
2023-02-27T05:51:06.826Z,-1.38
2023-02-27T05:53:39.241Z,-1.47
2023-02-27T05:56:08.083Z,-1.63
2023-02-27T05:58:34.381Z,-1.55
2023-02-27T06:01:03.750Z,-1.62
2023-02-27T06:03:33.545Z,-1.50
2023-02-27T06:06:03.175Z,-1.54
2023-02-27T06:08:29.680Z,-1.54
2023-02-27T06:10:56.061Z,-1.67
2023-02-27T06:13:23.979Z,-1.51
2023-02-27T06:15:50.631Z,-1.66
2023-02-27T06:18:17.741Z,-1.51
2023-02-27T06:20:44.856Z,-1.37
2023-02-27T06:23:12.055Z,-1.36
2023-02-27T06:25:38.987Z,-1.29
2023-02-27T06:28:05.922Z,-1.09
2023-02-27T06:30:32.350Z,-0.82
2023-02-27T06:32:59.826Z,-0.74
2023-02-27T06:35:26.548Z,-0.51
2023-02-27T06:37:53.020Z,-0.56
2023-02-27T06:40:19.428Z,-0.31
2023-02-27T06:42:46.265Z,-0.23
2023-02-27T06:45:15.298Z,-0.19
2023-02-27T06:47:42.961Z,-0.13
2023-02-27T06:50:11.292Z,-0.01
2023-02-27T06:52:38.747Z,0.07
2023-02-27T06:55:07.210Z,0.17
2023-02-27T06:57:33.798Z,0.18
2023-02-27T07:00:00.190Z,0.12
2023-02-27T07:02:26.723Z,0.20
2023-02-27T07:04:53.245Z,0.24
2023-02-27T07:07:35.189Z,0.42
2023-02-27T07:10:05.056Z,0.47
2023-02-27T07:12:31.439Z,0.59
2023-02-27T07:14:57.864Z,0.63
2023-02-27T07:17:24.212Z,0.73
2023-02-27T07:19:50.606Z,0.65
2023-02-27T07:22:16.973Z,0.77
2023-02-27T07:24:43.398Z,0.79
2023-02-27T07:27:09.768Z,0.95
2023-02-27T07:29:36.128Z,1.07
2023-02-27T07:32:02.901Z,1.23
2023-02-27T07:34:29.299Z,1.39
2023-02-27T07:36:55.672Z,1.23
2023-02-27T07:39:22.031Z,1.43
2023-02-27T07:41:48.386Z,1.42
2023-02-27T07:44:14.844Z,1.58
2023-02-27T07:46:41.228Z,1.51
2023-02-27T07:49:07.658Z,1.71
2023-02-27T07:51:34.048Z,1.71
2023-02-27T07:54:00.434Z,1.83
2023-02-27T07:56:27.328Z,2.05
2023-02-27T07:58:53.977Z,2.13
2023-02-27T08:01:20.387Z,2.17
2023-02-27T08:03:46.766Z,2.09
2023-02-27T08:06:13.231Z,2.22
2023-02-27T08:08:39.693Z,2.15
2023-02-27T08:11:06.211Z,2.45
2023-02-27T08:13:59.161Z,2.56
2023-02-27T08:16:18.939Z,2.57
2023-02-27T08:18:45.277Z,3.03
2023-02-27T08:21:11.627Z,3.11
2023-02-27T08:23:38.023Z,3.50
2023-02-27T08:26:04.582Z,3.23
2023-02-27T08:28:30.956Z,3.39
2023-02-27T08:30:57.456Z,3.39
2023-02-27T08:33:25.170Z,3.47
2023-02-27T08:35:51.911Z,3.86
2023-02-27T08:38:18.302Z,3.61
2023-02-27T08:40:44.696Z,3.90
2023-02-27T08:43:11.096Z,4.06
2023-02-27T08:45:37.680Z,4.28
2023-02-27T08:48:04.242Z,4.34
2023-02-27T08:50:30.656Z,4.21
2023-02-27T08:52:57.126Z,4.28
2023-02-27T08:55:23.587Z,4.33
2023-02-27T08:57:49.956Z,4.53
2023-02-27T09:00:16.828Z,4.60
2023-02-27T09:02:43.314Z,4.59
2023-02-27T09:05:09.763Z,4.58
2023-02-27T09:07:36.177Z,4.55
2023-02-27T09:10:02.770Z,4.67
2023-02-27T09:12:29.194Z,4.86
2023-02-27T09:14:55.576Z,4.93
2023-02-27T09:17:21.972Z,4.96
2023-02-27T09:19:49.247Z,5.01
2023-02-27T09:22:15.633Z,5.34
2023-02-27T09:24:42.004Z,5.45
2023-02-27T09:27:08.402Z,5.42
2023-02-27T09:29:34.802Z,5.69
2023-02-27T09:32:01.377Z,5.96
2023-02-27T09:34:28.202Z,6.16
2023-02-27T09:36:54.596Z,5.91
2023-02-27T09:39:21.405Z,6.39
2023-02-27T09:42:15.525Z,6.84
2023-02-27T09:44:47.686Z,7.33
2023-02-27T09:47:20.927Z,7.25
2023-02-27T09:49:57.275Z,7.00
2023-02-27T09:52:23.761Z,7.37
2023-02-27T09:54:50.458Z,7.72
2023-02-27T09:57:31.742Z,7.72
2023-02-27T10:00:04.957Z,7.96
2023-02-27T10:02:56.061Z,7.73
2023-02-27T10:05:31.091Z,7.52
2023-02-27T10:08:35.695Z,7.92
2023-02-27T10:11:07.326Z,7.81
2023-02-27T10:13:55.676Z,8.17
2023-02-27T10:16:23.080Z,8.66
2023-02-27T10:18:57.984Z,9.12
2023-02-27T10:21:51.106Z,9.33
2023-02-27T10:24:44.721Z,9.42
2023-02-27T10:27:17.614Z,9.20
2023-02-27T10:29:44.061Z,8.91
2023-02-27T10:32:17.065Z,9.49
2023-02-27T10:34:46.916Z,9.59
2023-02-27T10:37:16.296Z,10.37
2023-02-27T10:39:53.237Z,10.51
2023-02-27T10:42:20.652Z,10.28
2023-02-27T10:44:53.388Z,10.82
2023-02-27T10:47:24.514Z,11.05
2023-02-27T10:49:53.082Z,11.46
2023-02-27T10:52:19.522Z,11.44
2023-02-27T10:54:46.584Z,11.67
2023-02-27T10:57:21.054Z,11.33
2023-02-27T10:59:53.372Z,11.59
2023-02-27T11:02:24.969Z,12.37
2023-02-27T11:04:56.978Z,12.20
2023-02-27T11:07:39.707Z,11.42
2023-02-27T11:10:15.082Z,10.90
2023-02-27T11:12:56.399Z,10.05
2023-02-27T11:15:26.701Z,10.40
2023-02-27T11:17:54.728Z,9.80
2023-02-27T11:20:30.313Z,10.49
2023-02-27T11:23:16.377Z,9.95
2023-02-27T11:25:43.307Z,9.82
2023-02-27T11:28:26.539Z,9.43
2023-02-27T11:31:03.400Z,9.41
2023-02-27T11:33:35.873Z,8.99
2023-02-27T11:36:03.150Z,8.86
2023-02-27T11:38:31.571Z,8.88
2023-02-27T11:41:01.546Z,8.93
2023-02-27T11:43:46.866Z,8.57
2023-02-27T11:46:47.894Z,8.67
2023-02-27T11:49:18.815Z,8.50
2023-02-27T11:52:03.343Z,8.30
2023-02-27T11:54:57.175Z,8.69
2023-02-27T11:57:32.404Z,8.57
2023-02-27T12:00:06.611Z,9.40
2023-02-27T12:03:00.571Z,9.63
2023-02-27T12:05:41.039Z,10.42
2023-02-27T12:08:18.069Z,10.26
2023-02-27T12:11:13.214Z,9.68
2023-02-27T12:13:45.345Z,10.05
2023-02-27T12:16:22.536Z,9.31
2023-02-27T12:18:55.385Z,9.34
2023-02-27T12:21:26.477Z,9.56
2023-02-27T12:24:10.362Z,9.63
2023-02-27T12:26:43.688Z,10.42
2023-02-27T12:29:34.708Z,10.79
2023-02-27T12:32:23.036Z,10.49
2023-02-27T12:34:58.206Z,11.73
2023-02-27T12:37:27.593Z,10.56
2023-02-27T12:39:58.031Z,11.33
2023-02-27T12:42:42.862Z,11.29
2023-02-27T12:45:37.125Z,10.79
2023-02-27T12:48:29.229Z,10.67
2023-02-27T12:51:27.538Z,10.17
2023-02-27T12:54:18.611Z,10.35
2023-02-27T12:57:22.803Z,9.94
2023-02-27T12:59:56.784Z,10.00
2023-02-27T13:02:26.611Z,9.13
2023-02-27T13:05:06.854Z,9.58
2023-02-27T13:08:04.592Z,9.05
2023-02-27T13:10:41.893Z,9.59
2023-02-27T13:13:26.632Z,9.89
2023-02-27T13:16:06.026Z,9.58
2023-02-27T13:18:42.169Z,9.71
2023-02-27T13:21:18.184Z,9.42
2023-02-27T13:24:01.967Z,9.53
2023-02-27T13:26:41.953Z,9.02
2023-02-27T13:29:14.303Z,8.73
2023-02-27T13:31:52.704Z,9.11
2023-02-27T13:34:30.223Z,9.59
2023-02-27T13:37:05.204Z,9.70
2023-02-27T13:39:37.882Z,9.51
2023-02-27T13:42:05.232Z,9.32
2023-02-27T13:44:40.861Z,10.09
2023-02-27T13:47:40.451Z,10.73
2023-02-27T13:50:21.114Z,10.89
2023-02-27T13:52:48.081Z,10.01
2023-02-27T13:55:31.057Z,9.99
2023-02-27T13:57:59.935Z,9.95
2023-02-27T14:00:29.154Z,9.90
2023-02-27T14:03:08.776Z,9.25
2023-02-27T14:05:46.876Z,9.53
2023-02-27T14:08:22.118Z,9.40
2023-02-27T14:11:12.639Z,9.09
2023-02-27T14:13:54.511Z,9.08
2023-02-27T14:16:41.822Z,8.82
2023-02-27T14:19:17.709Z,9.42
2023-02-27T14:22:00.353Z,9.41
2023-02-27T14:24:44.815Z,9.17
2023-02-27T14:27:26.727Z,9.09
2023-02-27T14:29:57.320Z,9.63
2023-02-27T14:32:26.431Z,9.20
2023-02-27T14:34:54.829Z,9.34
2023-02-27T14:37:25.120Z,8.91
2023-02-27T14:39:54.392Z,9.13
2023-02-27T14:42:39.593Z,9.29
2023-02-27T14:45:13.912Z,9.26
2023-02-27T14:47:40.808Z,8.99
2023-02-27T14:50:23.052Z,9.45
2023-02-27T14:52:49.489Z,9.44
2023-02-27T14:55:33.409Z,9.36
2023-02-27T14:58:14.585Z,9.15
2023-02-27T15:00:50.433Z,9.02
2023-02-27T15:03:22.645Z,9.20
2023-02-27T15:05:51.382Z,8.81
2023-02-27T15:08:25.225Z,8.59
2023-02-27T15:10:54.084Z,8.65
2023-02-27T15:13:25.642Z,8.58
2023-02-27T15:16:16.670Z,8.59
2023-02-27T15:18:48.478Z,8.63
2023-02-27T15:21:15.589Z,8.56
2023-02-27T15:23:41.997Z,8.63
2023-02-27T15:26:14.118Z,8.36
2023-02-27T15:28:40.863Z,8.33
2023-02-27T15:31:12.442Z,8.35
2023-02-27T15:33:41.000Z,8.20
2023-02-27T15:36:07.801Z,7.86
2023-02-27T15:38:36.306Z,8.07
2023-02-27T15:41:03.787Z,8.11
2023-02-27T15:43:31.150Z,8.08
2023-02-27T15:45:58.333Z,7.88
2023-02-27T15:48:25.655Z,7.87
2023-02-27T15:50:59.408Z,8.02
2023-02-27T15:53:27.979Z,7.72
2023-02-27T15:55:58.500Z,7.87
2023-02-27T15:58:27.548Z,7.70
2023-02-27T16:01:19.090Z,7.72
2023-02-27T16:03:48.799Z,7.62
2023-02-27T16:06:23.359Z,7.73
2023-02-27T16:08:58.220Z,7.46
2023-02-27T16:11:27.780Z,7.32
2023-02-27T16:13:55.114Z,7.69
2023-02-27T16:16:21.536Z,7.49
2023-02-27T16:18:51.032Z,7.50
2023-02-27T16:21:18.637Z,7.51
2023-02-27T16:23:46.027Z,7.46
2023-02-27T16:26:23.501Z,7.47
2023-02-27T16:29:06.340Z,7.52
2023-02-27T16:31:34.772Z,7.26
2023-02-27T16:34:21.427Z,7.30
2023-02-27T16:36:57.918Z,6.95
2023-02-27T16:39:24.914Z,7.07
2023-02-27T16:41:55.899Z,6.89
2023-02-27T16:44:24.306Z,6.86
2023-02-27T16:46:52.977Z,6.94
2023-02-27T16:49:22.382Z,6.89
2023-02-27T16:51:49.333Z,6.79
2023-02-27T16:54:16.603Z,6.83
2023-02-27T16:56:46.308Z,6.87
2023-02-27T16:59:37.429Z,6.56
2023-02-27T17:02:06.992Z,6.42
2023-02-27T17:04:33.453Z,6.50
2023-02-27T17:07:01.263Z,6.35
2023-02-27T17:09:28.316Z,6.23
2023-02-27T17:11:56.119Z,6.01
2023-02-27T17:14:23.897Z,5.95
2023-02-27T17:16:50.324Z,5.98
2023-02-27T17:19:16.853Z,5.83
2023-02-27T17:21:43.289Z,5.72
2023-02-27T17:24:09.778Z,5.52
2023-02-27T17:26:36.538Z,5.62
2023-02-27T17:29:03.653Z,5.70
2023-02-27T17:31:30.054Z,5.60
2023-02-27T17:33:56.911Z,5.58
2023-02-27T17:36:23.806Z,5.40
2023-02-27T17:38:57.548Z,5.34
2023-02-27T17:41:24.518Z,5.20
2023-02-27T17:43:53.759Z,5.25
2023-02-27T17:46:20.240Z,5.02
2023-02-27T17:48:46.969Z,5.03
2023-02-27T17:51:15.167Z,4.94
2023-02-27T17:53:42.362Z,5.05
2023-02-27T17:56:09.987Z,4.98
2023-02-27T17:58:36.645Z,4.76
2023-02-27T18:01:05.802Z,4.86
2023-02-27T18:03:32.603Z,4.77
2023-02-27T18:05:59.039Z,4.80
2023-02-27T18:08:25.503Z,4.78
2023-02-27T18:10:52.693Z,4.79
2023-02-27T18:13:19.586Z,4.73
2023-02-27T18:15:46.219Z,4.69
2023-02-27T18:18:12.935Z,4.72
2023-02-27T18:20:40.424Z,4.79
2023-02-27T18:23:08.650Z,4.81
2023-02-27T18:25:36.265Z,4.77
2023-02-27T18:28:03.564Z,4.73
2023-02-27T18:30:33.322Z,4.55
2023-02-27T18:33:00.138Z,4.65
2023-02-27T18:35:26.938Z,4.48
2023-02-27T18:37:53.344Z,4.32
2023-02-27T18:40:24.392Z,4.44
2023-02-27T18:42:52.344Z,4.47
2023-02-27T18:45:19.734Z,4.30
2023-02-27T18:47:46.190Z,4.44
2023-02-27T18:50:13.055Z,4.46
2023-02-27T18:52:39.487Z,4.45
2023-02-27T18:55:06.610Z,4.41
2023-02-27T18:57:33.103Z,4.42
2023-02-27T18:59:59.465Z,4.44
2023-02-27T19:02:25.878Z,4.56
2023-02-27T19:04:52.281Z,4.57
2023-02-27T19:07:19.601Z,4.67
2023-02-27T19:09:45.977Z,4.61
2023-02-27T19:12:12.326Z,4.76
2023-02-27T19:14:39.465Z,4.66
2023-02-27T19:17:06.502Z,4.84
2023-02-27T19:19:32.946Z,4.87
2023-02-27T19:21:59.373Z,4.63
2023-02-27T19:24:25.867Z,4.73
2023-02-27T19:26:53.492Z,4.64
2023-02-27T19:29:20.152Z,4.61
2023-02-27T19:31:46.753Z,4.66
2023-02-27T19:34:14.710Z,4.54
2023-02-27T19:36:41.430Z,4.48
2023-02-27T19:39:08.046Z,4.33
2023-02-27T19:41:34.466Z,4.18
2023-02-27T19:44:00.954Z,4.38
2023-02-27T19:46:30.961Z,4.30
2023-02-27T19:49:00.782Z,4.35
2023-02-27T19:51:27.258Z,4.39
2023-02-27T19:53:53.985Z,4.34
2023-02-27T19:56:23.096Z,4.38
2023-02-27T19:58:50.633Z,4.43
2023-02-27T20:01:23.233Z,4.20
2023-02-27T20:03:49.705Z,4.33
2023-02-27T20:06:18.963Z,4.46
2023-02-27T20:08:45.403Z,4.38
2023-02-27T20:11:13.395Z,4.26
2023-02-27T20:13:40.174Z,4.37
2023-02-27T20:16:09.194Z,4.36
2023-02-27T20:18:36.427Z,4.35
2023-02-27T20:21:12.882Z,4.41
2023-02-27T20:23:40.910Z,4.36
2023-02-27T20:26:21.443Z,4.43
2023-02-27T20:28:51.892Z,4.40
2023-02-27T20:31:21.113Z,4.43
2023-02-27T20:33:49.028Z,4.54
2023-02-27T20:36:16.028Z,4.64
2023-02-27T20:38:42.600Z,4.47
2023-02-27T20:41:14.814Z,4.48
2023-02-27T20:43:44.626Z,4.44
2023-02-27T20:46:13.502Z,4.50
2023-02-27T20:48:40.574Z,4.60
2023-02-27T20:51:21.772Z,4.51
2023-02-27T20:53:50.989Z,4.44
2023-02-27T20:56:22.451Z,4.41
2023-02-27T20:58:49.221Z,4.49
2023-02-27T21:01:16.679Z,4.53
2023-02-27T21:03:45.007Z,4.59
2023-02-27T21:06:14.098Z,4.45
2023-02-27T21:08:46.126Z,4.41
2023-02-27T21:11:33.193Z,4.66
2023-02-27T21:14:04.588Z,4.61
2023-02-27T21:16:31.817Z,4.78
2023-02-27T21:18:58.267Z,4.60
2023-02-27T21:21:30.489Z,4.68
2023-02-27T21:23:57.629Z,4.75
2023-02-27T21:26:38.981Z,4.59
2023-02-27T21:29:11.004Z,4.53
2023-02-27T21:31:38.913Z,4.48
2023-02-27T21:34:08.387Z,4.49
2023-02-27T21:36:42.126Z,4.76
2023-02-27T21:39:11.588Z,4.76
2023-02-27T21:41:38.818Z,4.81
2023-02-27T21:44:07.238Z,4.77
2023-02-27T21:46:34.647Z,4.70
2023-02-27T21:49:01.668Z,4.64
2023-02-27T21:51:39.565Z,4.67
2023-02-27T21:54:07.274Z,4.75
2023-02-27T21:56:33.799Z,4.76
2023-02-27T21:59:01.737Z,4.70
2023-02-27T22:01:29.267Z,4.55
2023-02-27T22:03:56.920Z,4.72
2023-02-27T22:06:25.948Z,4.78
2023-02-27T22:08:56.745Z,4.83
2023-02-27T22:11:24.777Z,4.90
2023-02-27T22:13:51.169Z,4.96
2023-02-27T22:16:18.287Z,4.88
2023-02-27T22:18:44.735Z,4.62
2023-02-27T22:21:16.014Z,4.80
2023-02-27T22:23:43.423Z,4.77
2023-02-27T22:26:13.400Z,4.96
2023-02-27T22:28:41.332Z,5.03
2023-02-27T22:31:26.917Z,5.01
2023-02-27T22:33:55.632Z,4.94
2023-02-27T22:36:25.377Z,4.93
2023-02-27T22:38:52.758Z,4.83
2023-02-27T22:41:22.456Z,4.92
2023-02-27T22:43:49.633Z,4.78
2023-02-27T22:46:23.306Z,4.76
2023-02-27T22:48:56.974Z,4.97
2023-02-27T22:51:25.296Z,4.95
2023-02-27T22:53:51.895Z,4.86
2023-02-27T22:56:18.555Z,4.95
2023-02-27T22:58:45.611Z,4.97
2023-02-27T23:01:24.137Z,5.05
2023-02-27T23:03:52.584Z,4.87
2023-02-27T23:06:21.732Z,4.93
2023-02-27T23:08:48.644Z,4.92
2023-02-27T23:11:16.200Z,4.96
2023-02-27T23:13:42.864Z,4.83
2023-02-27T23:16:13.609Z,4.81
2023-02-27T23:18:46.045Z,4.90
2023-02-27T23:21:13.768Z,4.66
2023-02-27T23:23:40.394Z,4.88
2023-02-27T23:26:06.874Z,4.89
2023-02-27T23:28:35.398Z,5.14
2023-02-27T23:31:02.421Z,5.12
2023-02-27T23:33:29.963Z,5.04
2023-02-27T23:35:57.538Z,4.67
2023-02-27T23:38:25.362Z,4.70
2023-02-27T23:40:52.106Z,5.00
2023-02-27T23:43:37.239Z,4.90
2023-02-27T23:46:08.496Z,5.04
2023-02-27T23:48:35.342Z,4.99
2023-02-27T23:51:05.552Z,5.03
2023-02-27T23:53:33.102Z,4.88
2023-02-27T23:55:59.566Z,4.97
2023-02-27T23:58:26.044Z,4.90
